Time;durP1;ratioP1;P1;durP2;ratioP2;P2;SDS_P1;SDS_P2;PMS_P1;PMS_P2;Temp;Humidity;BMP_temperature;BMP_pressure;BME280_temperature;BME280_humidity;BME280_pressure;Samples;Min_cycle;Max_cycle;Signal;HPM_P1;HPM_P2
2023/07/22 00:01:58;;;;;;;4.30;1.70;;;10.90;93.80;;;;;;4999888;28;20613;-68
2023/07/22 00:04:23;;;;;;;4.30;2.30;;;10.90;94.00;;;;;;5005790;28;20045;-68
2023/07/22 00:06:49;;;;;;;6.90;2.83;;;10.90;94.10;;;;;;5003458;28;20060;-68
2023/07/22 00:09:15;;;;;;;6.10;2.23;;;10.90;94.00;;;;;;5013069;28;20141;-68
2023/07/22 00:11:40;;;;;;;3.83;1.93;;;10.80;94.10;;;;;;5016020;28;20048;-68
2023/07/22 00:14:06;;;;;;;4.77;2.03;;;10.80;94.20;;;;;;5008590;28;20037;-68
2023/07/22 00:16:33;;;;;;;6.93;2.10;;;10.70;94.20;;;;;;4989827;28;20041;-68
2023/07/22 00:18:58;;;;;;;9.35;2.13;;;10.70;94.40;;;;;;5006285;28;20041;-68
2023/07/22 00:21:24;;;;;;;6.90;1.97;;;10.70;94.60;;;;;;5010642;28;20047;-68
2023/07/22 00:23:50;;;;;;;5.17;2.70;;;10.60;94.50;;;;;;5015606;28;20041;-68
2023/07/22 00:26:15;;;;;;;4.83;2.10;;;10.60;94.60;;;;;;5014102;28;20069;-68
2023/07/22 00:28:43;;;;;;;6.10;2.00;;;10.50;94.70;;;;;;5014264;28;20191;-68
2023/07/22 00:31:09;;;;;;;4.97;2.10;;;10.50;94.80;;;;;;4996628;28;20038;-68
2023/07/22 00:33:34;;;;;;;7.17;2.03;;;10.50;95.00;;;;;;5008837;28;20098;-68
2023/07/22 00:36:00;;;;;;;6.30;1.87;;;10.50;94.90;;;;;;5008002;28;20049;-68
2023/07/22 00:38:27;;;;;;;5.67;2.30;;;10.40;94.80;;;;;;5005995;28;20132;-68
2023/07/22 00:40:53;;;;;;;4.90;1.80;;;10.40;94.80;;;;;;5008589;28;20402;-68
2023/07/22 00:43:19;;;;;;;6.32;2.35;;;10.40;94.60;;;;;;5001419;28;20041;-68
2023/07/22 00:45:44;;;;;;;2.27;1.37;;;10.30;94.70;;;;;;5009150;28;20532;-68
2023/07/22 00:48:13;;;;;;;4.63;1.93;;;10.30;94.70;;;;;;5004470;28;20085;-68
2023/07/22 00:50:39;;;;;;;5.45;2.03;;;10.20;94.70;;;;;;5008446;28;20096;-68
2023/07/22 00:53:04;;;;;;;4.22;1.98;;;10.20;94.60;;;;;;5008104;28;20116;-68
2023/07/22 00:55:33;;;;;;;4.83;1.87;;;10.20;94.80;;;;;;5015258;28;20038;-68
2023/07/22 00:57:59;;;;;;;4.82;1.92;;;10.20;94.90;;;;;;5004360;28;20053;-68
2023/07/22 01:00:24;;;;;;;4.20;1.77;;;10.10;94.90;;;;;;5017909;28;20049;-68
2023/07/22 01:02:50;;;;;;;4.43;1.90;;;10.10;95.10;;;;;;5033129;28;20041;-68
2023/07/22 01:05:16;;;;;;;3.77;1.80;;;10.10;95.10;;;;;;5047653;28;20125;-68
2023/07/22 01:07:42;;;;;;;2.10;1.53;;;10.10;95.20;;;;;;5038350;28;20037;-68
2023/07/22 01:10:11;;;;;;;4.67;1.60;;;10.10;95.10;;;;;;5042707;28;21030;-68
2023/07/22 01:12:38;;;;;;;4.38;1.70;;;10.10;95.30;;;;;;5049522;28;20033;-68
2023/07/22 01:15:07;;;;;;;6.43;1.90;;;10.10;95.10;;;;;;5043688;28;20040;-68
2023/07/22 01:17:35;;;;;;;2.78;1.90;;;10.10;95.40;;;;;;5049682;28;20041;-68
2023/07/22 01:20:00;;;;;;;3.22;1.83;;;10.10;95.30;;;;;;5039712;28;20075;-68
2023/07/22 01:22:27;;;;;;;3.70;2.17;;;10.10;95.20;;;;;;5049644;28;20655;-68
2023/07/22 01:24:54;;;;;;;5.55;1.95;;;10.00;95.10;;;;;;5047501;28;20033;-68
2023/07/22 01:27:19;;;;;;;3.17;1.83;;;10.00;95.30;;;;;;5050495;28;20033;-68
2023/07/22 01:29:45;;;;;;;2.67;2.00;;;10.00;95.30;;;;;;5022546;28;20168;-68
2023/07/22 01:32:11;;;;;;;5.63;2.03;;;10.00;95.50;;;;;;5026945;28;20409;-68
2023/07/22 01:34:36;;;;;;;4.07;2.00;;;10.00;95.40;;;;;;5030428;28;20093;-69
2023/07/22 01:37:04;;;;;;;7.87;2.30;;;10.00;95.30;;;;;;5035438;28;20045;-69
2023/07/22 01:39:30;;;;;;;6.18;2.22;;;10.00;95.40;;;;;;5046617;28;20091;-69
2023/07/22 01:41:55;;;;;;;5.53;2.40;;;10.00;95.50;;;;;;5041143;28;20084;-69
2023/07/22 01:44:21;;;;;;;4.63;2.20;;;10.00;95.60;;;;;;5048492;28;20234;-69
2023/07/22 01:46:47;;;;;;;5.10;2.17;;;10.10;95.90;;;;;;5041099;28;20514;-69
2023/07/22 01:49:13;;;;;;;8.17;2.37;;;10.10;95.90;;;;;;5053479;28;20044;-69
2023/07/22 01:51:42;;;;;;;4.73;2.40;;;10.10;95.90;;;;;;5045164;28;20108;-69
2023/07/22 01:54:09;;;;;;;8.13;2.63;;;10.10;96.00;;;;;;5048703;28;20040;-69
2023/07/22 01:56:35;;;;;;;5.45;2.63;;;10.10;96.10;;;;;;5038697;28;20044;-69
2023/07/22 01:59:01;;;;;;;6.03;2.30;;;10.10;96.00;;;;;;5050434;28;20045;-69
2023/07/22 02:01:28;;;;;;;6.45;2.50;;;10.10;95.90;;;;;;5040943;28;20061;-68
2023/07/22 02:03:54;;;;;;;5.87;2.07;;;10.10;95.70;;;;;;5038154;28;20040;-68
2023/07/22 02:06:20;;;;;;;5.32;2.00;;;10.10;95.90;;;;;;5042293;28;20342;-69
2023/07/22 02:08:46;;;;;;;6.30;1.80;;;10.10;95.90;;;;;;5038845;28;20440;-69
2023/07/22 02:11:12;;;;;;;4.40;1.80;;;10.20;96.10;;;;;;5031339;28;20076;-69
2023/07/22 02:13:38;;;;;;;6.63;2.38;;;10.20;96.00;;;;;;5035656;28;20057;-69
2023/07/22 02:16:04;;;;;;;5.47;2.23;;;10.30;96.40;;;;;;5049442;28;20047;-68
2023/07/22 02:18:30;;;;;;;4.93;1.93;;;10.40;96.60;;;;;;5048040;28;20055;-68
2023/07/22 02:20:57;;;;;;;4.73;2.40;;;10.40;96.40;;;;;;5043690;28;20037;-69
2023/07/22 02:23:23;;;;;;;4.15;1.95;;;10.50;96.20;;;;;;5048917;28;20473;-69
2023/07/22 02:25:54;;;;;;;5.35;2.10;;;10.50;96.30;;;;;;5041922;28;20076;-69
2023/07/22 02:28:21;;;;;;;6.05;2.15;;;10.60;96.30;;;;;;5030410;28;20049;-68
2023/07/22 02:30:52;;;;;;;4.32;2.05;;;10.60;96.40;;;;;;5046258;28;20110;-68
2023/07/22 02:33:18;;;;;;;4.65;2.00;;;10.60;96.20;;;;;;5024994;28;20037;-68
2023/07/22 02:35:44;;;;;;;4.90;2.37;;;10.60;96.30;;;;;;5039021;28;20393;-69
2023/07/22 02:38:10;;;;;;;6.57;2.47;;;10.60;96.30;;;;;;5038853;28;20318;-69
2023/07/22 02:40:39;;;;;;;5.00;1.90;;;10.50;96.20;;;;;;5047091;28;20391;-69
2023/07/22 02:43:06;;;;;;;5.40;2.35;;;10.50;96.10;;;;;;5034590;28;20050;-69
2023/07/22 02:45:36;;;;;;;4.78;2.28;;;10.50;96.10;;;;;;5040946;28;20073;-69
2023/07/22 02:48:02;;;;;;;4.60;2.30;;;10.50;96.10;;;;;;5032206;28;20056;-69
2023/07/22 02:50:28;;;;;;;4.93;2.27;;;10.40;95.90;;;;;;5046025;28;20033;-69
2023/07/22 02:52:53;;;;;;;5.30;2.40;;;10.40;96.10;;;;;;5037327;28;20153;-69
2023/07/22 02:55:19;;;;;;;7.77;2.23;;;10.50;96.30;;;;;;5046648;28;20174;-69
2023/07/22 02:57:46;;;;;;;3.67;2.17;;;10.50;96.50;;;;;;5039923;28;20041;-69
2023/07/22 03:00:17;;;;;;;5.28;2.10;;;10.60;96.60;;;;;;5035543;28;20369;-69
2023/07/22 03:02:43;;;;;;;4.03;2.05;;;10.70;96.80;;;;;;5041445;28;20139;-69
2023/07/22 03:05:09;;;;;;;6.40;2.60;;;10.80;96.70;;;;;;5040361;28;20069;-69
2023/07/22 03:07:37;;;;;;;5.53;2.65;;;10.80;96.60;;;;;;5034320;28;20117;-69
2023/07/22 03:10:03;;;;;;;9.43;2.93;;;10.90;96.60;;;;;;5040491;28;20152;-69
2023/07/22 03:12:29;;;;;;;6.07;3.00;;;11.00;96.50;;;;;;5022620;28;20818;-69
2023/07/22 03:14:55;;;;;;;7.00;2.97;;;11.00;96.60;;;;;;5035820;28;20041;-69
2023/07/22 03:17:20;;;;;;;7.20;3.10;;;11.10;96.50;;;;;;5045256;28;20032;-69
2023/07/22 03:19:46;;;;;;;5.73;3.70;;;11.20;96.50;;;;;;5048195;28;20040;-69
2023/07/22 03:22:16;;;;;;;5.90;2.97;;;11.30;96.40;;;;;;5031551;28;20041;-68
2023/07/22 03:24:42;;;;;;;9.20;3.73;;;11.30;96.50;;;;;;5031580;28;20041;-68
2023/07/22 03:27:08;;;;;;;7.33;4.07;;;11.40;96.50;;;;;;5035650;28;20429;-68
2023/07/22 03:29:34;;;;;;;6.73;3.80;;;11.50;96.90;;;;;;5034723;28;20318;-69
2023/07/22 03:32:00;;;;;;;8.30;4.00;;;11.50;96.70;;;;;;5049021;28;20576;-69
2023/07/22 03:34:30;;;;;;;7.93;4.17;;;11.60;96.80;;;;;;5071607;28;20287;-69
2023/07/22 03:36:55;;;;;;;11.37;4.90;;;11.70;96.70;;;;;;5041724;28;20366;-69
2023/07/22 03:39:21;;;;;;;9.70;4.80;;;11.80;97.10;;;;;;5035177;28;20291;-69
2023/07/22 03:41:47;;;;;;;10.77;5.00;;;11.90;97.00;;;;;;5045952;28;20099;-69
2023/07/22 03:44:12;;;;;;;13.00;6.03;;;12.00;97.00;;;;;;5049533;28;20046;-69
2023/07/22 03:46:38;;;;;;;12.40;6.57;;;12.10;97.10;;;;;;5036578;28;20366;-69
2023/07/22 03:49:05;;;;;;;11.87;5.30;;;12.20;97.10;;;;;;5048268;28;20056;-73
2023/07/22 03:51:30;;;;;;;14.03;6.30;;;12.30;97.00;;;;;;5036978;28;20763;-69
2023/07/22 03:53:57;;;;;;;15.30;6.70;;;12.30;97.20;;;;;;5037812;28;20276;-69
2023/07/22 03:56:23;;;;;;;12.53;7.03;;;12.40;97.20;;;;;;5049922;28;20607;-69
2023/07/22 03:58:50;;;;;;;14.27;6.73;;;12.50;97.10;;;;;;5041543;28;20279;-69
2023/07/22 04:01:15;;;;;;;11.63;6.73;;;12.50;97.20;;;;;;5043553;28;20326;-69
2023/07/22 04:03:41;;;;;;;12.80;6.50;;;12.60;97.00;;;;;;5046335;28;20820;-69
2023/07/22 04:06:07;;;;;;;12.60;6.30;;;12.60;97.00;;;;;;5043943;28;20041;-69
2023/07/22 04:08:33;;;;;;;14.83;6.83;;;12.70;97.10;;;;;;5044285;28;20124;-69
2023/07/22 04:10:59;;;;;;;16.23;7.43;;;12.70;97.10;;;;;;5037174;28;20447;-69
2023/07/22 04:13:26;;;;;;;17.60;8.03;;;12.70;97.20;;;;;;5046810;28;20103;-69
2023/07/22 04:15:51;;;;;;;12.13;6.67;;;12.70;97.20;;;;;;5047855;28;20032;-69
2023/07/22 04:18:19;;;;;;;12.63;7.37;;;12.80;97.20;;;;;;5045859;28;20348;-69
2023/07/22 04:20:45;;;;;;;13.13;7.90;;;12.80;97.30;;;;;;5051924;28;20469;-69
2023/07/22 04:23:11;;;;;;;14.33;8.13;;;12.90;97.30;;;;;;5024811;28;20325;-69
2023/07/22 04:25:41;;;;;;;13.97;7.70;;;12.90;97.30;;;;;;5052671;28;20858;-69
2023/07/22 04:28:08;;;;;;;17.63;8.57;;;13.00;97.40;;;;;;5031501;28;20631;-69
2023/07/22 04:30:34;;;;;;;14.10;8.20;;;13.10;97.50;;;;;;5044050;28;20292;-69
2023/07/22 04:33:00;;;;;;;12.73;7.73;;;13.10;97.40;;;;;;5049636;28;20287;-68
2023/07/22 04:35:25;;;;;;;14.10;7.47;;;13.10;97.30;;;;;;5044309;28;20310;-69
2023/07/22 04:37:51;;;;;;;14.77;8.73;;;13.20;97.30;;;;;;5057793;28;20041;-69
2023/07/22 04:40:18;;;;;;;17.90;8.10;;;13.20;97.30;;;;;;5053876;28;20068;-69
2023/07/22 04:42:45;;;;;;;13.90;8.40;;;13.30;97.30;;;;;;5048749;28;20811;-69
2023/07/22 04:45:11;;;;;;;15.87;8.40;;;13.30;97.30;;;;;;5039401;28;21032;-69
2023/07/22 04:47:41;;;;;;;15.33;8.67;;;13.40;97.50;;;;;;5041089;28;20284;-69
2023/07/22 04:50:09;;;;;;;17.90;9.60;;;13.40;97.30;;;;;;5046256;28;20897;-69
2023/07/22 04:52:35;;;;;;;15.37;8.47;;;13.50;97.30;;;;;;5042093;28;20280;-69
2023/07/22 04:55:08;;;;;;;17.03;8.90;;;13.50;97.40;;;;;;5049766;28;20621;-69
2023/07/22 04:57:38;;;;;;;14.43;8.17;;;13.60;97.40;;;;;;5047340;28;20283;-69
2023/07/22 05:00:04;;;;;;;15.97;8.07;;;13.60;97.50;;;;;;5041945;28;20773;-69
2023/07/22 05:02:32;;;;;;;13.50;7.17;;;13.60;97.50;;;;;;5002858;28;20284;-69
2023/07/22 05:04:58;;;;;;;14.33;7.90;;;13.70;97.40;;;;;;5005233;28;20371;-69
2023/07/22 05:07:23;;;;;;;11.10;7.10;;;13.80;97.40;;;;;;5002474;28;21618;-69
2023/07/22 05:09:51;;;;;;;12.50;7.13;;;13.80;97.30;;;;;;5002852;28;20370;-69
2023/07/22 05:12:17;;;;;;;12.47;7.10;;;13.90;97.20;;;;;;4989782;28;20430;-69
2023/07/22 05:14:42;;;;;;;12.00;6.63;;;14.00;97.10;;;;;;5006220;28;20288;-69
2023/07/22 05:17:08;;;;;;;12.53;7.33;;;14.20;97.10;;;;;;5005583;28;20475;-69
2023/07/22 05:19:34;;;;;;;13.47;7.57;;;14.40;97.10;;;;;;5015669;28;20055;-69
2023/07/22 05:21:59;;;;;;;12.83;6.90;;;14.40;96.60;;;;;;5012003;28;20056;-69
2023/07/22 05:24:25;;;;;;;11.73;6.87;;;14.50;96.40;;;;;;5011803;28;20048;-69
2023/07/22 05:26:51;;;;;;;11.67;7.17;;;14.60;96.10;;;;;;5008631;28;20331;-69
2023/07/22 05:29:16;;;;;;;13.83;7.87;;;14.70;95.80;;;;;;5010201;28;20047;-69
2023/07/22 05:31:42;;;;;;;12.53;7.93;;;14.70;95.50;;;;;;4995925;28;20033;-69
2023/07/22 05:34:08;;;;;;;15.20;9.03;;;14.80;95.20;;;;;;5007327;28;20041;-69
2023/07/22 05:36:33;;;;;;;16.03;10.27;;;14.80;95.00;;;;;;5006884;28;20039;-69
2023/07/22 05:38:59;;;;;;;16.20;9.30;;;14.90;94.80;;;;;;5002315;28;20053;-69
2023/07/22 05:41:26;;;;;;;15.33;8.97;;;14.90;94.80;;;;;;5005517;28;20133;-69
2023/07/22 05:43:52;;;;;;;18.20;10.10;;;15.00;94.70;;;;;;5000025;28;20390;-69
2023/07/22 05:46:17;;;;;;;16.37;9.33;;;15.00;94.50;;;;;;5006453;28;20277;-69
2023/07/22 05:48:43;;;;;;;15.47;9.60;;;15.10;94.40;;;;;;5009475;28;20041;-69
2023/07/22 05:51:10;;;;;;;15.27;8.77;;;15.20;94.10;;;;;;5008004;28;20557;-69
2023/07/22 05:53:35;;;;;;;13.97;8.80;;;15.30;94.20;;;;;;5012830;28;20033;-69
2023/07/22 05:56:01;;;;;;;15.37;9.37;;;15.40;94.10;;;;;;5012491;28;20674;-69
2023/07/22 05:58:27;;;;;;;16.87;10.13;;;15.50;93.90;;;;;;5004132;28;20050;-69
2023/07/22 06:00:55;;;;;;;16.20;10.10;;;15.60;93.60;;;;;;5025990;28;20048;-69
2023/07/22 06:03:21;;;;;;;16.60;9.37;;;15.70;93.80;;;;;;5041725;28;20642;-69
2023/07/22 06:05:47;;;;;;;15.20;10.57;;;15.90;93.50;;;;;;5037302;28;20276;-69
2023/07/22 06:08:13;;;;;;;16.20;10.10;;;16.00;93.20;;;;;;5040915;28;20395;-69
2023/07/22 06:10:40;;;;;;;15.90;9.97;;;16.00;92.40;;;;;;5041741;28;20029;-69
2023/07/22 06:13:06;;;;;;;17.83;10.03;;;16.10;92.20;;;;;;5048876;28;20299;-69
2023/07/22 06:15:33;;;;;;;14.30;9.47;;;16.10;92.00;;;;;;5034237;28;20284;-69
2023/07/22 06:17:59;;;;;;;15.33;10.00;;;16.10;91.70;;;;;;5039505;28;20286;-69
2023/07/22 06:20:26;;;;;;;16.53;10.43;;;16.20;91.30;;;;;;5034160;28;20276;-69
2023/07/22 06:22:51;;;;;;;18.27;10.47;;;16.20;91.30;;;;;;5036206;28;20303;-69
2023/07/22 06:25:17;;;;;;;18.77;11.23;;;16.20;91.30;;;;;;5039357;28;20775;-69
2023/07/22 06:27:43;;;;;;;18.13;10.87;;;16.30;91.20;;;;;;5019985;28;20145;-69
2023/07/22 06:30:09;;;;;;;19.10;10.93;;;16.30;91.20;;;;;;5039181;28;20115;-69
2023/07/22 06:32:37;;;;;;;17.63;10.50;;;16.30;91.30;;;;;;5036415;28;20371;-69
2023/07/22 06:35:03;;;;;;;18.33;11.00;;;16.40;91.40;;;;;;5033544;28;20629;-69
2023/07/22 06:37:29;;;;;;;21.27;11.27;;;16.40;91.50;;;;;;5031728;28;20307;-69
2023/07/22 06:39:55;;;;;;;17.40;11.70;;;16.40;91.20;;;;;;5033170;28;20052;-69
2023/07/22 06:42:20;;;;;;;17.93;10.33;;;16.50;91.40;;;;;;5041235;28;20280;-69
2023/07/22 06:44:46;;;;;;;22.67;11.57;;;16.60;91.60;;;;;;5043182;28;20037;-69
2023/07/22 06:47:12;;;;;;;17.07;11.07;;;16.70;91.80;;;;;;5039216;28;20054;-69
2023/07/22 06:49:38;;;;;;;17.87;11.27;;;16.90;91.50;;;;;;5034693;28;20068;-69
2023/07/22 06:52:04;;;;;;;17.93;11.33;;;17.00;90.90;;;;;;5036610;28;20303;-69
2023/07/22 06:54:30;;;;;;;16.80;10.47;;;17.00;90.60;;;;;;5024134;28;20318;-69
2023/07/22 06:56:56;;;;;;;16.77;10.83;;;17.00;89.80;;;;;;5045264;28;20283;-69
2023/07/22 06:59:21;;;;;;;17.10;11.20;;;17.00;90.10;;;;;;5036134;28;20041;-69
2023/07/22 07:01:48;;;;;;;14.50;10.23;;;17.10;90.00;;;;;;5026167;28;20049;-69
2023/07/22 07:04:14;;;;;;;17.87;10.90;;;17.20;90.00;;;;;;5050633;28;20743;-70
2023/07/22 07:06:40;;;;;;;15.73;10.80;;;17.30;89.90;;;;;;5048533;28;20313;-71
2023/07/22 07:09:07;;;;;;;16.90;10.97;;;17.40;89.60;;;;;;5034957;28;20493;-71
2023/07/22 07:11:32;;;;;;;14.17;9.67;;;17.60;89.30;;;;;;5039883;28;20713;-69
2023/07/22 07:13:58;;;;;;;16.20;9.77;;;17.80;89.30;;;;;;5035960;28;20446;-70
2023/07/22 07:16:31;;;;;;;14.90;9.23;;;17.90;88.80;;;;;;5039732;28;20397;-71
2023/07/22 07:18:57;;;;;;;13.93;9.20;;;18.20;88.50;;;;;;5034744;28;20124;-71
2023/07/22 07:21:26;;;;;;;12.80;8.73;;;18.40;87.90;;;;;;5036741;28;20769;-70
2023/07/22 07:23:52;;;;;;;12.67;7.97;;;18.50;87.00;;;;;;5039432;28;20680;-70
2023/07/22 07:26:19;;;;;;;9.80;7.37;;;18.70;87.00;;;;;;5031364;28;20691;-70
2023/07/22 07:28:46;;;;;;;10.90;7.77;;;18.80;86.30;;;;;;5044196;28;20311;-70
2023/07/22 07:31:15;;;;;;;14.23;7.97;;;18.80;85.00;;;;;;5037370;28;20401;-70
2023/07/22 07:33:41;;;;;;;11.80;7.27;;;18.80;85.70;;;;;;5046636;28;20036;-71
2023/07/22 07:36:06;;;;;;;13.87;7.67;;;18.90;85.70;;;;;;5038193;28;20061;-70
2023/07/22 07:38:32;;;;;;;13.20;7.03;;;19.00;84.30;;;;;;5041490;28;20044;-70
2023/07/22 07:41:03;;;;;;;10.30;6.50;;;19.20;84.70;;;;;;5040597;28;20037;-71
2023/07/22 07:43:29;;;;;;;9.63;6.43;;;19.40;84.20;;;;;;5025165;28;20049;-70
2023/07/22 07:46:17;;;;;;;11.07;7.23;;;19.60;82.80;;;;;;5028871;28;20048;-70
2023/07/22 07:48:44;;;;;;;10.13;7.13;;;19.70;81.30;;;;;;5032466;28;20124;-71
2023/07/22 07:51:10;;;;;;;9.10;6.07;;;19.80;81.30;;;;;;5058800;28;20046;-71
2023/07/22 07:53:35;;;;;;;9.00;6.33;;;19.90;80.90;;;;;;5018364;28;20065;-71
2023/07/22 07:56:01;;;;;;;9.73;6.30;;;19.80;78.30;;;;;;5033394;28;20041;-70
2023/07/22 07:58:27;;;;;;;7.97;5.97;;;19.80;78.20;;;;;;5021657;28;20409;-71
2023/07/22 08:00:53;;;;;;;11.30;6.70;;;19.80;79.60;;;;;;5035701;28;20056;-70
2023/07/22 08:03:18;;;;;;;10.23;6.10;;;19.80;79.40;;;;;;5019798;28;20071;-70
2023/07/22 08:05:44;;;;;;;9.97;6.63;;;19.80;79.10;;;;;;5042395;28;20052;-70
2023/07/22 08:08:10;;;;;;;8.63;6.13;;;19.70;79.50;;;;;;5043778;28;20042;-70
2023/07/22 08:10:36;;;;;;;8.93;5.63;;;19.60;77.80;;;;;;5037426;28;20042;-70
2023/07/22 08:13:03;;;;;;;8.07;5.80;;;19.50;78.60;;;;;;5021747;28;20486;-70
2023/07/22 08:15:28;;;;;;;11.03;6.20;;;19.40;78.70;;;;;;5047544;28;20067;-71
2023/07/22 08:17:54;;;;;;;9.57;5.67;;;19.30;79.30;;;;;;5046495;28;20040;-70
2023/07/22 08:20:21;;;;;;;6.87;5.13;;;19.40;79.70;;;;;;5047948;28;20056;-70
2023/07/22 08:22:46;;;;;;;7.07;5.07;;;19.40;79.50;;;;;;5041240;28;20118;-70
2023/07/22 08:25:12;;;;;;;6.70;4.93;;;19.40;78.70;;;;;;5052147;28;20049;-70
2023/07/22 08:27:38;;;;;;;6.60;5.67;;;19.40;78.40;;;;;;5029131;28;20323;-70
2023/07/22 08:30:07;;;;;;;8.37;5.33;;;19.30;77.00;;;;;;5048213;28;20040;-71
2023/07/22 08:32:34;;;;;;;11.00;7.33;;;19.20;77.40;;;;;;5045845;28;20124;-71
2023/07/22 08:35:00;;;;;;;19.03;11.10;;;19.10;77.90;;;;;;5024777;28;20059;-70
2023/07/22 08:37:26;;;;;;;29.53;14.40;;;18.90;78.70;;;;;;5051772;28;20417;-72
2023/07/22 08:39:51;;;;;;;31.03;16.30;;;18.60;80.90;;;;;;5046838;28;20051;-72
2023/07/22 08:42:21;;;;;;;25.33;14.90;;;18.10;82.90;;;;;;5039796;28;20037;-74
2023/07/22 08:44:48;;;;;;;25.57;15.80;;;17.70;84.10;;;;;;5049811;28;20045;-73
2023/07/22 08:47:16;;;;;;;27.63;15.97;;;17.50;86.10;;;;;;5043216;28;20138;-73
2023/07/22 08:49:50;;;;;;;25.13;15.93;;;17.30;86.90;;;;;;5044038;28;20048;-72
2023/07/22 08:52:17;;;;;;;26.23;16.08;;;17.30;88.70;;;;;;5038063;28;20477;-72
2023/07/22 08:54:44;;;;;;;24.97;15.53;;;17.40;89.10;;;;;;5072806;28;20049;-71
2023/07/22 08:57:11;;;;;;;19.47;12.80;;;17.50;90.00;;;;;;5044934;28;20037;-72
2023/07/22 08:59:39;;;;;;;20.40;12.63;;;17.50;90.10;;;;;;5047332;28;20045;-71
2023/07/22 09:02:08;;;;;;;19.47;11.73;;;17.50;89.90;;;;;;5040242;28;20300;-71
2023/07/22 09:04:33;;;;;;;17.57;11.53;;;17.50;90.00;;;;;;5028369;28;20335;-71
2023/07/22 09:06:59;;;;;;;18.73;12.00;;;17.40;90.10;;;;;;5053127;28;20284;-72
2023/07/22 09:09:25;;;;;;;18.90;11.30;;;17.30;90.60;;;;;;5037212;28;20107;-71
2023/07/22 09:11:53;;;;;;;17.53;11.30;;;17.30;91.00;;;;;;5043109;28;20505;-72
2023/07/22 09:14:19;;;;;;;17.07;10.63;;;17.30;90.80;;;;;;5048466;28;20541;-72
2023/07/22 09:16:46;;;;;;;16.10;10.23;;;17.40;90.70;;;;;;5050747;28;20285;-71
2023/07/22 09:19:11;;;;;;;13.90;9.30;;;17.40;90.70;;;;;;5047162;28;20095;-72
2023/07/22 09:21:37;;;;;;;15.13;9.90;;;17.50;90.80;;;;;;5050065;28;20823;-72
2023/07/22 09:24:29;;;;;;;13.70;9.37;;;17.50;91.00;;;;;;5047648;28;20335;-72
2023/07/22 09:26:55;;;;;;;13.60;9.03;;;17.60;91.10;;;;;;5043173;28;20146;-71
2023/07/22 09:29:35;;;;;;;12.30;8.20;;;17.70;90.90;;;;;;5045963;28;20349;-71
2023/07/22 09:32:01;;;;;;;8.77;6.10;;;17.90;91.00;;;;;;5043824;28;20344;-72
2023/07/22 09:34:27;;;;;;;7.43;5.47;;;18.10;91.10;;;;;;5028205;28;20280;-72
2023/07/22 09:36:55;;;;;;;6.30;3.20;;;18.30;90.50;;;;;;5041126;28;20076;-70
2023/07/22 09:39:22;;;;;;;3.73;2.20;;;18.40;88.60;;;;;;5029893;28;20040;-71
2023/07/22 09:41:48;;;;;;;3.10;1.80;;;18.40;88.10;;;;;;5027986;28;20064;-71
2023/07/22 09:44:14;;;;;;;4.67;2.30;;;18.40;86.80;;;;;;5047942;28;20048;-71
2023/07/22 09:46:49;;;;;;;7.43;3.43;;;18.30;85.90;;;;;;5044020;28;20267;-71
2023/07/22 09:49:18;;;;;;;4.67;3.27;;;18.30;85.20;;;;;;5026183;28;20106;-72
2023/07/22 09:51:44;;;;;;;4.70;3.20;;;18.20;85.50;;;;;;5027314;28;20131;-71
2023/07/22 09:54:10;;;;;;;5.23;3.70;;;18.20;85.10;;;;;;5038468;28;20303;-70
2023/07/22 09:56:50;;;;;;;7.20;3.83;;;18.10;85.30;;;;;;5036069;28;20029;-69
2023/07/22 09:59:20;;;;;;;5.70;4.27;;;18.10;85.70;;;;;;5033560;28;20550;-69
2023/07/22 10:01:48;;;;;;;5.20;4.27;;;18.00;85.10;;;;;;5036400;28;20145;-69
2023/07/22 10:04:16;;;;;;;6.67;4.90;;;17.90;85.70;;;;;;5039239;28;20048;-69
2023/07/22 10:06:43;;;;;;;5.23;3.93;;;17.80;85.70;;;;;;5039165;28;20286;-69
2023/07/22 10:09:11;;;;;;;6.10;3.90;;;17.70;86.20;;;;;;5035342;28;20391;-69
2023/07/22 10:11:38;;;;;;;7.90;4.43;;;17.70;86.60;;;;;;5037745;28;20292;-69
2023/07/22 10:14:05;;;;;;;4.47;3.73;;;17.60;86.90;;;;;;5045493;28;20284;-69
2023/07/22 10:16:31;;;;;;;5.37;3.80;;;17.70;87.50;;;;;;5064383;28;20779;-69
2023/07/22 10:18:57;;;;;;;5.27;3.70;;;17.70;87.90;;;;;;5038497;28;20100;-69
2023/07/22 10:21:25;;;;;;;4.87;3.73;;;17.80;88.10;;;;;;5025646;28;20049;-69
2023/07/22 10:23:51;;;;;;;5.77;3.60;;;17.80;88.10;;;;;;5040225;28;20298;-69
2023/07/22 10:26:18;;;;;;;5.43;3.43;;;17.80;87.80;;;;;;5037729;28;20536;-69
2023/07/22 10:28:46;;;;;;;4.27;3.80;;;17.80;87.40;;;;;;5037131;28;20303;-69
2023/07/22 10:31:18;;;;;;;4.97;3.60;;;17.70;87.00;;;;;;5060949;28;20072;-70
2023/07/22 10:33:47;;;;;;;7.17;3.83;;;17.70;87.20;;;;;;5034542;28;20393;-71
2023/07/22 10:36:17;;;;;;;6.23;4.60;;;17.50;87.40;;;;;;5032619;28;20284;-71
2023/07/22 10:38:43;;;;;;;6.10;4.73;;;17.40;87.70;;;;;;5033073;28;20636;-71
2023/07/22 10:41:21;;;;;;;7.03;4.57;;;17.30;87.70;;;;;;5040868;28;20288;-71
2023/07/22 10:43:59;;;;;;;7.40;5.00;;;17.20;88.20;;;;;;5046040;28;20297;-71
2023/07/22 10:46:36;;;;;;;10.47;5.23;;;17.10;88.60;;;;;;5037593;28;20737;-71
2023/07/22 10:49:16;;;;;;;8.27;5.17;;;17.00;89.50;;;;;;5041514;28;20300;-71
2023/07/22 10:51:48;;;;;;;8.03;5.43;;;17.00;90.30;;;;;;5041201;28;20765;-71
2023/07/22 10:54:15;;;;;;;9.57;6.13;;;16.90;90.70;;;;;;5041322;28;20281;-71
2023/07/22 10:56:44;;;;;;;8.00;5.73;;;16.80;90.30;;;;;;5041117;28;20362;-72
2023/07/22 10:59:11;;;;;;;8.70;6.23;;;16.70;91.10;;;;;;5045367;28;20365;-72
2023/07/22 11:01:38;;;;;;;8.57;5.67;;;16.60;90.90;;;;;;5033898;28;20879;-72
2023/07/22 11:04:14;;;;;;;9.00;6.03;;;16.60;91.10;;;;;;5035211;28;20283;-72
2023/07/22 11:06:50;;;;;;;8.80;6.67;;;16.50;91.90;;;;;;5042356;28;20291;-72
2023/07/22 11:09:28;;;;;;;9.20;6.83;;;16.50;92.00;;;;;;5032098;28;20312;-71
2023/07/22 11:11:56;;;;;;;9.87;7.03;;;16.50;92.70;;;;;;5022900;28;20374;-71
2023/07/22 11:14:24;;;;;;;8.63;5.77;;;16.40;93.20;;;;;;5040674;28;20380;-71
2023/07/22 11:16:50;;;;;;;9.73;5.27;;;16.30;94.00;;;;;;5035698;28;20289;-72
2023/07/22 11:19:18;;;;;;;9.43;5.43;;;16.30;95.00;;;;;;5023188;28;20366;-72
2023/07/22 11:21:45;;;;;;;9.60;5.60;;;16.20;95.30;;;;;;5034090;28;20349;-72
2023/07/22 11:24:10;;;;;;;9.17;6.67;;;16.20;95.80;;;;;;5034894;28;20283;-72
2023/07/22 11:26:38;;;;;;;9.33;7.30;;;16.30;95.90;;;;;;5033819;28;20283;-72
2023/07/22 11:29:04;;;;;;;12.30;7.90;;;16.30;96.50;;;;;;5035388;28;20044;-72
2023/07/22 11:31:36;;;;;;;11.07;8.57;;;16.40;96.90;;;;;;5041343;28;20284;-75
2023/07/22 11:34:03;;;;;;;12.00;8.63;;;16.50;97.20;;;;;;5042647;28;20279;-74
2023/07/22 11:36:29;;;;;;;16.57;9.87;;;16.70;98.00;;;;;;5045918;28;20295;-74
2023/07/22 11:39:02;;;;;;;12.47;8.70;;;16.80;97.80;;;;;;5041269;28;20465;-75
2023/07/22 11:41:28;;;;;;;13.93;9.30;;;16.80;97.90;;;;;;5039579;28;20295;-74
2023/07/22 11:43:57;;;;;;;11.77;8.50;;;16.90;97.90;;;;;;5060772;28;20288;-74
2023/07/22 11:46:23;;;;;;;11.40;7.90;;;16.80;97.40;;;;;;5042002;28;20335;-73
2023/07/22 11:48:55;;;;;;;11.27;8.33;;;16.80;97.00;;;;;;5040166;28;20304;-74
2023/07/22 11:51:24;;;;;;;11.77;8.87;;;16.70;97.20;;;;;;5031070;28;20029;-74
2023/07/22 11:53:51;;;;;;;13.93;8.93;;;16.70;97.60;;;;;;5042343;28;20367;-74
2023/07/22 11:56:28;;;;;;;11.50;8.27;;;16.90;98.70;;;;;;5027893;28;20283;-74
2023/07/22 11:58:55;;;;;;;12.03;8.37;;;17.10;98.40;;;;;;5047426;28;20284;-74
2023/07/22 12:01:22;;;;;;;11.47;8.07;;;17.30;97.90;;;;;;5045839;28;20300;-74
2023/07/22 12:03:48;;;;;;;12.93;9.20;;;17.40;98.10;;;;;;5044417;28;20287;-74
2023/07/22 12:06:15;;;;;;;15.70;9.10;;;17.60;97.80;;;;;;5046047;28;20341;-74
2023/07/22 12:08:49;;;;;;;13.70;9.00;;;17.90;98.40;;;;;;5031489;28;20306;-75
2023/07/22 12:11:19;;;;;;;14.37;9.67;;;18.10;97.80;;;;;;5045616;28;20305;-74
2023/07/22 12:13:46;;;;;;;13.13;9.20;;;18.40;98.50;;;;;;5026451;28;20291;-74
2023/07/22 12:16:13;;;;;;;12.77;8.70;;;18.70;97.10;;;;;;5029993;28;20386;-74
2023/07/22 12:18:46;;;;;;;17.37;8.83;;;18.90;94.60;;;;;;5047388;28;20276;-74
2023/07/22 12:21:13;;;;;;;15.53;10.00;;;19.00;93.70;;;;;;5050410;28;20360;-74
2023/07/22 12:23:39;;;;;;;13.53;8.60;;;19.10;94.90;;;;;;5042638;28;20847;-73
2023/07/22 12:26:06;;;;;;;10.17;7.70;;;19.30;95.60;;;;;;5052629;28;20045;-74
2023/07/22 12:28:32;;;;;;;11.97;7.70;;;19.20;92.60;;;;;;5045310;28;20041;-74
2023/07/22 12:30:57;;;;;;;10.20;7.33;;;19.10;92.50;;;;;;5049421;28;20041;-72
2023/07/22 12:33:26;;;;;;;10.20;8.20;;;19.10;92.80;;;;;;5041028;28;20042;-73
2023/07/22 12:35:57;;;;;;;9.93;6.80;;;19.10;93.30;;;;;;5030615;28;20055;-73
2023/07/22 12:38:23;;;;;;;10.70;6.40;;;18.90;90.20;;;;;;5048182;28;20530;-73
2023/07/22 12:40:49;;;;;;;11.90;7.10;;;18.80;89.60;;;;;;5038883;28;20313;-73